createdAt,value
2019-01-26T00:00:55.206Z,95326.59
2019-01-26T00:01:58.794Z,95319.73
2019-01-26T00:03:02.300Z,95320.84
2019-01-26T00:04:05.994Z,95324.38
2019-01-26T00:05:09.587Z,95315.47
2019-01-26T00:06:13.167Z,95317.77
2019-01-26T00:07:16.633Z,95319.82
2019-01-26T00:08:20.091Z,95317.92
2019-01-26T00:09:23.628Z,95327.84
2019-01-26T00:10:27.210Z,95309.78
2019-01-26T00:11:30.645Z,95313.25
2019-01-26T00:12:34.099Z,95315.83
2019-01-26T00:13:37.647Z,95322.20
2019-01-26T00:14:41.244Z,95319.55
2019-01-26T00:15:44.829Z,95323.69
2019-01-26T00:16:48.418Z,95313.48
2019-01-26T00:17:51.965Z,95317.72
2019-01-26T00:18:55.421Z,95318.16
2019-01-26T00:19:58.859Z,95300.66
2019-01-26T00:21:02.323Z,95311.80
2019-01-26T00:22:06.015Z,95304.98
2019-01-26T00:23:09.588Z,95304.98
2019-01-26T00:24:13.178Z,95309.05
2019-01-26T00:25:16.685Z,95309.22
2019-01-26T00:26:20.135Z,95304.86
2019-01-26T00:27:23.675Z,95317.16
2019-01-26T00:28:27.232Z,95307.41
2019-01-26T00:29:30.672Z,95302.77
2019-01-26T00:30:34.186Z,95309.91
2019-01-26T00:31:37.692Z,95307.92
2019-01-26T00:32:41.274Z,95311.16
2019-01-26T00:33:44.721Z,95306.96
2019-01-26T00:34:48.164Z,95296.31
2019-01-26T00:35:51.670Z,95301.03
2019-01-26T00:36:55.115Z,95304.66
2019-01-26T00:37:58.577Z,95301.11
2019-01-26T00:39:02.114Z,95299.13
2019-01-26T00:40:11.111Z,95300.66
2019-01-26T00:41:14.580Z,95305.02
2019-01-26T00:42:17.994Z,95305.47
2019-01-26T00:43:21.513Z,95304.13
2019-01-26T00:44:24.950Z,95292.67
2019-01-26T00:45:28.485Z,95296.14
2019-01-26T00:46:32.073Z,95289.97
2019-01-26T00:47:35.542Z,95297.44
2019-01-26T00:48:38.993Z,95299.13
2019-01-26T00:49:42.499Z,95296.55
2019-01-26T00:50:46.009Z,95294.54
2019-01-26T00:51:49.505Z,95294.25
2019-01-26T00:52:52.993Z,95289.20
2019-01-26T00:53:56.536Z,95282.43
2019-01-26T00:54:59.980Z,95286.38
2019-01-26T00:56:03.674Z,95288.11
2019-01-26T00:57:07.159Z,95283.84
2019-01-26T00:58:10.683Z,95296.87
2019-01-26T00:59:14.118Z,95287.39
2019-01-26T01:00:22.115Z,95277.67
2019-01-26T01:01:25.823Z,95282.55
2019-01-26T01:02:29.315Z,95279.64
2019-01-26T01:03:32.844Z,95276.78
2019-01-26T01:04:36.343Z,95273.27
2019-01-26T01:05:39.860Z,95269.39
2019-01-26T01:06:43.356Z,95262.76
2019-01-26T01:07:47.017Z,95259.77
2019-01-26T01:08:50.604Z,95261.06
2019-01-26T01:09:54.046Z,95261.82
2019-01-26T01:10:57.608Z,95253.31
2019-01-26T01:12:01.120Z,95253.95
2019-01-26T01:13:04.784Z,95251.14
2019-01-26T01:14:08.407Z,95249.41
2019-01-26T01:15:17.675Z,95238.31
2019-01-26T01:16:21.111Z,95245.62
2019-01-26T01:17:24.633Z,95248.52
2019-01-26T01:18:28.143Z,95252.75
2019-01-26T01:19:31.598Z,95238.55
2019-01-26T01:20:35.094Z,95235.81
2019-01-26T01:21:38.729Z,95230.89
2019-01-26T01:22:42.358Z,95235.38
2019-01-26T01:23:45.987Z,95238.31
2019-01-26T01:24:49.587Z,95233.50
2019-01-26T01:25:53.165Z,95234.79
2019-01-26T01:26:56.615Z,95229.98
2019-01-26T01:28:00.058Z,95236.78
2019-01-26T01:29:03.925Z,95227.72
2019-01-26T01:30:10.453Z,95232.38
2019-01-26T01:31:13.945Z,95231.70
2019-01-26T01:32:17.400Z,95223.92
2019-01-26T01:33:20.868Z,95227.92
2019-01-26T01:34:24.371Z,95229.21
2019-01-26T01:35:27.872Z,95226.02
2019-01-26T01:36:31.379Z,95231.62
2019-01-26T01:37:34.901Z,95227.74
2019-01-26T01:38:38.324Z,95229.36
2019-01-26T01:39:41.787Z,95227.06
2019-01-26T01:40:45.223Z,95222.58
2019-01-26T01:41:48.830Z,95219.81
2019-01-26T01:42:52.357Z,95213.88
2019-01-26T01:43:55.860Z,95218.55
2019-01-26T01:44:59.342Z,95210.56
2019-01-26T01:46:02.923Z,95218.75
2019-01-26T01:47:06.430Z,95216.38
2019-01-26T01:48:09.951Z,95209.85
2019-01-26T01:49:13.522Z,95205.97
2019-01-26T01:50:17.090Z,95204.16
2019-01-26T01:51:20.663Z,95197.14
2019-01-26T01:52:24.288Z,95202.86
2019-01-26T01:53:27.751Z,95200.78
2019-01-26T01:54:31.199Z,95202.81
2019-01-26T01:55:34.633Z,95203.05
2019-01-26T01:56:38.142Z,95197.02
2019-01-26T01:57:41.740Z,95200.38
2019-01-26T01:58:45.173Z,95197.20
2019-01-26T01:59:48.620Z,95197.44
2019-01-26T02:00:52.199Z,95199.17
2019-01-26T02:01:55.718Z,95198.55
2019-01-26T02:02:59.213Z,95203.72
2019-01-26T02:04:02.680Z,95197.88
2019-01-26T02:05:06.647Z,95196.12
2019-01-26T02:06:10.227Z,95194.39
2019-01-26T02:07:13.725Z,95186.18
2019-01-26T02:08:17.252Z,95190.23
2019-01-26T02:09:20.692Z,95187.88
2019-01-26T02:10:24.396Z,95194.78
2019-01-26T02:11:27.927Z,95193.05
2019-01-26T02:12:31.351Z,95191.81
2019-01-26T02:13:34.883Z,95186.18
2019-01-26T02:14:38.374Z,95186.83
2019-01-26T02:15:41.877Z,95192.44
2019-01-26T02:16:50.022Z,95183.30
2019-01-26T02:17:50.722Z,95189.88
2019-01-26T02:18:54.229Z,95191.09
2019-01-26T02:19:57.665Z,95183.48
2019-01-26T02:21:02.239Z,95178.95
2019-01-26T02:22:05.809Z,95174.04
2019-01-26T02:23:09.280Z,95165.23
2019-01-26T02:24:12.792Z,95162.13
2019-01-26T02:25:16.300Z,95158.98
2019-01-26T02:26:19.807Z,95158.12
2019-01-26T02:27:23.239Z,95161.37
2019-01-26T02:28:26.697Z,95160.66
2019-01-26T02:29:30.130Z,95156.98
2019-01-26T02:30:33.688Z,95151.18
2019-01-26T02:31:37.252Z,95150.00
2019-01-26T02:32:40.843Z,95144.39
2019-01-26T02:33:44.266Z,95146.22
2019-01-26T02:34:47.764Z,95145.14
2019-01-26T02:35:51.191Z,95151.08
2019-01-26T02:36:54.617Z,95146.12
2019-01-26T02:37:58.065Z,95147.93
2019-01-26T02:39:01.570Z,95144.63
2019-01-26T02:40:08.334Z,95144.20
2019-01-26T02:41:11.770Z,95137.73
2019-01-26T02:42:15.266Z,95138.06
2019-01-26T02:43:18.723Z,95131.27
2019-01-26T02:44:22.247Z,95132.37
2019-01-26T02:45:25.702Z,95122.45
2019-01-26T02:46:30.436Z,95120.73
2019-01-26T02:47:33.991Z,95118.48
2019-01-26T02:48:37.518Z,95126.97
2019-01-26T02:49:40.963Z,95122.23
2019-01-26T02:50:44.461Z,95124.52
2019-01-26T02:51:47.916Z,95124.18
2019-01-26T02:52:51.393Z,95126.44
2019-01-26T02:53:54.860Z,95128.27
2019-01-26T02:54:58.286Z,95126.97
2019-01-26T02:56:01.718Z,95127.62
2019-01-26T02:57:05.285Z,95124.81
2019-01-26T02:58:08.857Z,95119.88
2019-01-26T02:59:12.385Z,95112.11
2019-01-26T03:00:18.269Z,95119.34
2019-01-26T03:01:21.689Z,95109.72
2019-01-26T03:02:25.120Z,95107.91
2019-01-26T03:03:28.556Z,95107.67
2019-01-26T03:04:32.067Z,95105.75
2019-01-26T03:05:35.561Z,95110.81
2019-01-26T03:06:38.983Z,95108.76
2019-01-26T03:07:42.405Z,95109.09
2019-01-26T03:08:45.937Z,95110.19
2019-01-26T03:09:49.404Z,95113.94
2019-01-26T03:10:52.855Z,95115.02
2019-01-26T03:11:56.285Z,95113.40
2019-01-26T03:12:59.796Z,95116.21
2019-01-26T03:14:03.227Z,95114.61
2019-01-26T03:15:12.231Z,95111.05
2019-01-26T03:16:15.664Z,95111.04
2019-01-26T03:17:19.188Z,95103.48
2019-01-26T03:18:22.637Z,95101.45
2019-01-26T03:19:26.113Z,95092.30
2019-01-26T03:20:29.581Z,95091.84
2019-01-26T03:21:33.023Z,95094.00
2019-01-26T03:22:36.455Z,95093.14
2019-01-26T03:23:39.958Z,95099.41
2019-01-26T03:24:43.527Z,95096.16
2019-01-26T03:25:47.014Z,95094.76
2019-01-26T03:26:50.458Z,95094.88
2019-01-26T03:27:53.879Z,95100.27
2019-01-26T03:28:57.334Z,95091.95
2019-01-26T03:30:00.758Z,95087.20
2019-01-26T03:31:04.343Z,95092.27
2019-01-26T03:32:07.912Z,95090.55
2019-01-26T03:33:11.323Z,95101.98
2019-01-26T03:34:14.768Z,95090.55
2019-01-26T03:35:18.417Z,95086.02
2019-01-26T03:36:21.862Z,95099.08
2019-01-26T03:37:25.353Z,95090.66
2019-01-26T03:38:28.781Z,95089.69
2019-01-26T03:39:32.292Z,95095.73
2019-01-26T03:40:35.797Z,95092.19
2019-01-26T03:41:39.288Z,95091.64
2019-01-26T03:42:42.779Z,95084.95
2019-01-26T03:43:46.361Z,95084.95
2019-01-26T03:44:49.822Z,95083.66
2019-01-26T03:45:53.382Z,95083.32
2019-01-26T03:46:56.830Z,95090.66
2019-01-26T03:48:00.255Z,95088.73
2019-01-26T03:49:03.781Z,95090.34
2019-01-26T03:50:10.241Z,95090.14
2019-01-26T03:51:13.668Z,95084.95
2019-01-26T03:52:17.159Z,95087.02
2019-01-26T03:53:20.662Z,95092.52
2019-01-26T03:54:24.196Z,95090.34
2019-01-26T03:55:27.700Z,95085.17
2019-01-26T03:56:31.223Z,95085.70
2019-01-26T03:57:34.688Z,95080.86
2019-01-26T03:58:38.183Z,95095.95
2019-01-26T03:59:41.992Z,95093.05
2019-01-26T04:00:45.427Z,95097.99
2019-01-26T04:01:48.999Z,95093.15
2019-01-26T04:02:52.564Z,95099.52
2019-01-26T04:03:56.007Z,95097.79
2019-01-26T04:04:59.595Z,95095.73
2019-01-26T04:06:03.087Z,95086.89
2019-01-26T04:07:06.583Z,95083.45
2019-01-26T04:08:10.133Z,95094.64
2019-01-26T04:09:13.578Z,95087.00
2019-01-26T04:10:17.740Z,95085.80
2019-01-26T04:11:21.232Z,95086.03
2019-01-26T04:12:24.656Z,95075.02
2019-01-26T04:13:28.236Z,95085.26
2019-01-26T04:14:31.667Z,95085.37
2019-01-26T04:15:35.241Z,95079.11
2019-01-26T04:16:38.759Z,95086.24
2019-01-26T04:17:42.252Z,95082.79
2019-01-26T04:18:45.747Z,95080.64
2019-01-26T04:19:49.256Z,95075.69
2019-01-26T04:20:52.764Z,95072.88
2019-01-26T04:21:56.266Z,95077.63
2019-01-26T04:22:59.768Z,95069.00
2019-01-26T04:24:03.267Z,95073.64
2019-01-26T04:25:07.363Z,95077.83
2019-01-26T04:26:10.862Z,95063.83
2019-01-26T04:27:14.439Z,95070.06
2019-01-26T04:28:17.871Z,95066.42
2019-01-26T04:29:21.312Z,95066.84
2019-01-26T04:30:24.824Z,95067.47
2019-01-26T04:31:28.249Z,95061.46
2019-01-26T04:32:31.740Z,95062.63
2019-01-26T04:33:35.172Z,95070.06
2019-01-26T04:34:38.601Z,95070.63
2019-01-26T04:35:42.043Z,95058.88
2019-01-26T04:36:45.476Z,95068.22
2019-01-26T04:37:48.896Z,95065.33
2019-01-26T04:38:52.334Z,95065.01
2019-01-26T04:39:55.737Z,95061.89
2019-01-26T04:40:59.191Z,95063.61
2019-01-26T04:42:02.633Z,95070.28
2019-01-26T04:43:06.143Z,95065.97
2019-01-26T04:44:09.733Z,95064.57
2019-01-26T04:45:15.940Z,95063.47
2019-01-26T04:46:19.443Z,95064.34
2019-01-26T04:47:30.485Z,95063.91
2019-01-26T04:48:28.030Z,95067.03
2019-01-26T04:49:31.458Z,95053.03
2019-01-26T04:50:34.891Z,95056.91
2019-01-26T04:51:38.379Z,95061.75
2019-01-26T04:52:41.962Z,95060.67
2019-01-26T04:53:45.355Z,95057.25
2019-01-26T04:54:48.861Z,95052.71
2019-01-26T04:55:52.362Z,95061.87
2019-01-26T04:56:55.817Z,95059.63
2019-01-26T04:57:59.315Z,95059.28
2019-01-26T04:59:02.749Z,95061.25
2019-01-26T05:00:11.965Z,95051.66
2019-01-26T05:01:15.453Z,95056.39
2019-01-26T05:02:18.931Z,95058.88
2019-01-26T05:03:22.383Z,95054.75
2019-01-26T05:04:25.810Z,95058.63
2019-01-26T05:05:29.228Z,95046.89
2019-01-26T05:06:32.764Z,95057.25
2019-01-26T05:07:36.191Z,95050.42
2019-01-26T05:08:39.627Z,95056.77
2019-01-26T05:09:43.191Z,95041.41
2019-01-26T05:10:46.638Z,95055.54
2019-01-26T05:11:50.068Z,95050.80
2019-01-26T05:12:53.494Z,95062.42
2019-01-26T05:13:56.948Z,95047.77
2019-01-26T05:15:00.426Z,95049.80
2019-01-26T05:16:04.221Z,95043.14
2019-01-26T05:17:07.639Z,95049.91
2019-01-26T05:18:11.246Z,95049.17
2019-01-26T05:19:14.791Z,95002.65
2019-01-26T05:20:23.670Z,95036.89
2019-01-26T05:21:27.123Z,95036.69
2019-01-26T05:22:30.560Z,95034.94
2019-01-26T05:23:33.987Z,95037.76
2019-01-26T05:24:37.553Z,95039.48
2019-01-26T05:25:40.976Z,95027.09
2019-01-26T05:26:44.596Z,95036.91
2019-01-26T05:27:48.157Z,95042.38
2019-01-26T05:28:51.591Z,95041.74
2019-01-26T05:29:55.015Z,95026.97
2019-01-26T05:30:58.521Z,95036.58
2019-01-26T05:32:01.963Z,95040.13
2019-01-26T05:33:05.383Z,95027.20
2019-01-26T05:34:08.813Z,95028.48
2019-01-26T05:35:12.398Z,95043.58
2019-01-26T05:36:15.824Z,95022.78
2019-01-26T05:37:19.268Z,95020.08
2019-01-26T05:38:22.766Z,95024.83
2019-01-26T05:39:26.255Z,95024.92
2019-01-26T05:40:29.687Z,95026.63
2019-01-26T05:41:33.113Z,95034.94
2019-01-26T05:42:36.562Z,95035.05
2019-01-26T05:43:40.068Z,95030.95
2019-01-26T05:44:43.489Z,95029.74
2019-01-26T05:45:47.069Z,95025.97
2019-01-26T05:46:50.570Z,95029.10
2019-01-26T05:47:54.014Z,95026.52
2019-01-26T05:48:57.442Z,95030.63
2019-01-26T05:50:00.869Z,95026.64
2019-01-26T05:51:04.366Z,95025.86
2019-01-26T05:52:07.871Z,95021.34
2019-01-26T05:53:11.397Z,95023.06
2019-01-26T05:54:14.889Z,95002.17
2019-01-26T05:55:18.450Z,95024.56
2019-01-26T05:56:21.883Z,95016.97
2019-01-26T05:57:25.375Z,95020.86
2019-01-26T05:58:28.888Z,95026.48
2019-01-26T05:59:32.312Z,95019.14
2019-01-26T06:00:36.014Z,95016.35
2019-01-26T06:01:39.436Z,95029.27
2019-01-26T06:02:42.929Z,95020.86
2019-01-26T06:03:46.374Z,95021.97
2019-01-26T06:04:49.803Z,95027.02
2019-01-26T06:05:53.293Z,95016.10
2019-01-26T06:06:56.717Z,95025.85
2019-01-26T06:08:00.211Z,95017.31
2019-01-26T06:09:05.334Z,95021.73
2019-01-26T06:10:08.993Z,95023.02
2019-01-26T06:11:12.488Z,95027.02
2019-01-26T06:12:15.924Z,95029.06
2019-01-26T06:13:19.428Z,95029.16
2019-01-26T06:14:22.945Z,95023.11
2019-01-26T06:15:26.432Z,95019.34
2019-01-26T06:16:30.016Z,95024.85
2019-01-26T06:17:33.514Z,95024.07
2019-01-26T06:18:37.031Z,95025.25
2019-01-26T06:19:40.582Z,95030.09
2019-01-26T06:20:43.957Z,95017.57
2019-01-26T06:21:47.455Z,95021.91
2019-01-26T06:22:50.949Z,95016.50
2019-01-26T06:23:54.473Z,95020.16
2019-01-26T06:24:58.038Z,95021.91
2019-01-26T06:26:01.542Z,95018.67
2019-01-26T06:27:05.141Z,95023.59
2019-01-26T06:28:08.638Z,95017.05
2019-01-26T06:29:12.126Z,95027.94
2019-01-26T06:30:20.372Z,95022.84
2019-01-26T06:31:23.867Z,95019.27
2019-01-26T06:32:27.352Z,95009.55
2019-01-26T06:33:30.851Z,95012.38
2019-01-26T06:34:34.364Z,95018.31
2019-01-26T06:35:37.813Z,95018.81
2019-01-26T06:36:41.310Z,95019.69
2019-01-26T06:37:44.804Z,95020.98
2019-01-26T06:38:48.247Z,95017.06
2019-01-26T06:39:51.771Z,95015.47
2019-01-26T06:40:55.270Z,95016.98
2019-01-26T06:41:58.703Z,95020.00
2019-01-26T06:43:02.226Z,95016.34
2019-01-26T06:44:05.719Z,95014.89
2019-01-26T06:45:11.099Z,95017.48
2019-01-26T06:46:14.552Z,95018.22
2019-01-26T06:47:17.988Z,95015.43
2019-01-26T06:48:21.420Z,95007.32
2019-01-26T06:49:24.856Z,95017.48
2019-01-26T06:50:28.656Z,95015.88
2019-01-26T06:51:32.082Z,95013.38
2019-01-26T06:52:35.531Z,95015.97
2019-01-26T06:53:38.968Z,95022.02
2019-01-26T06:54:42.400Z,95021.91
2019-01-26T06:55:45.861Z,95018.98
2019-01-26T06:56:49.351Z,95026.09
2019-01-26T06:57:52.844Z,95029.31
2019-01-26T06:58:56.271Z,95025.22
2019-01-26T06:59:59.717Z,95035.67
2019-01-26T07:01:03.350Z,95031.89
2019-01-26T07:02:07.223Z,95025.19
2019-01-26T07:03:10.803Z,95036.20
2019-01-26T07:04:15.911Z,95035.98
2019-01-26T07:05:26.821Z,95028.46
2019-01-26T07:06:31.979Z,95033.80
2019-01-26T07:07:35.604Z,95026.80
2019-01-26T07:08:39.394Z,95030.91
2019-01-26T07:09:42.844Z,95037.38
2019-01-26T07:10:46.468Z,95028.42
2019-01-26T07:11:49.894Z,95035.44
2019-01-26T07:12:53.399Z,95042.34
2019-01-26T07:13:56.827Z,95023.25
2019-01-26T07:15:00.311Z,95026.88
2019-01-26T07:16:03.960Z,95035.75
2019-01-26T07:17:07.382Z,95022.98
2019-01-26T07:18:10.825Z,95034.22
2019-01-26T07:19:14.279Z,95032.78
2019-01-26T07:20:18.746Z,95028.05
2019-01-26T07:21:22.254Z,95036.81
2019-01-26T07:22:25.768Z,95031.48
2019-01-26T07:23:29.362Z,95020.39
2019-01-26T07:24:33.026Z,95018.82
2019-01-26T07:25:36.538Z,95021.45
2019-01-26T07:26:39.986Z,95024.47
2019-01-26T07:27:43.484Z,95016.87
2019-01-26T07:28:46.931Z,95029.08
2019-01-26T07:29:50.454Z,95017.10
2019-01-26T07:30:53.940Z,95029.38
2019-01-26T07:31:57.383Z,95029.80
2019-01-26T07:33:00.828Z,95029.48
2019-01-26T07:34:04.313Z,95028.45
2019-01-26T07:35:08.075Z,95034.52
2019-01-26T07:36:11.526Z,95034.09
2019-01-26T07:37:14.948Z,95060.70
2019-01-26T07:38:18.444Z,95028.38
2019-01-26T07:39:21.870Z,95027.31
2019-01-26T07:40:25.853Z,95027.55
2019-01-26T07:41:29.299Z,95039.59
2019-01-26T07:42:32.794Z,95030.97
2019-01-26T07:43:36.222Z,95024.42
2019-01-26T07:44:39.648Z,95036.92
2019-01-26T07:45:43.096Z,95037.00
2019-01-26T07:46:46.539Z,95038.09
2019-01-26T07:47:50.120Z,95042.72
2019-01-26T07:48:53.726Z,95053.42
2019-01-26T07:49:57.133Z,95061.47
2019-01-26T07:51:00.738Z,95039.99
2019-01-26T07:52:04.295Z,95042.02
2019-01-26T07:53:07.712Z,95030.40
2019-01-26T07:54:11.274Z,95038.83
2019-01-26T07:55:14.936Z,95037.82
2019-01-26T07:56:18.445Z,95038.97
2019-01-26T07:57:21.875Z,95041.83
2019-01-26T07:58:25.300Z,95031.66
2019-01-26T07:59:28.748Z,95043.08
2019-01-26T08:00:32.327Z,95043.91
2019-01-26T08:01:35.821Z,95044.02
2019-01-26T08:02:39.316Z,95037.89
2019-01-26T08:03:42.818Z,95032.48
2019-01-26T08:04:46.317Z,95042.84
2019-01-26T08:05:49.824Z,95040.02
2019-01-26T08:06:53.370Z,95036.77
2019-01-26T08:07:56.775Z,95033.08
2019-01-26T08:09:00.278Z,95036.66
2019-01-26T08:10:05.231Z,95032.84
2019-01-26T08:11:08.827Z,95037.27
2019-01-26T08:12:12.357Z,95044.80
2019-01-26T08:13:15.803Z,95038.96
2019-01-26T08:14:19.225Z,95030.66
2019-01-26T08:15:28.308Z,95037.22
2019-01-26T08:16:32.682Z,95039.10
2019-01-26T08:17:36.262Z,95042.67
2019-01-26T08:18:39.759Z,95034.67
2019-01-26T08:19:43.191Z,95032.20
2019-01-26T08:20:46.778Z,95032.50
2019-01-26T08:21:50.221Z,95033.97
2019-01-26T08:22:53.729Z,95034.02
2019-01-26T08:23:57.153Z,95038.39
2019-01-26T08:25:00.666Z,95031.55
2019-01-26T08:26:04.225Z,95026.58
2019-01-26T08:27:07.667Z,95028.29
2019-01-26T08:28:11.084Z,95022.95
2019-01-26T08:29:14.519Z,95025.35
2019-01-26T08:30:20.612Z,95033.77
2019-01-26T08:31:24.250Z,95031.59
2019-01-26T08:32:27.754Z,95020.88
2019-01-26T08:33:31.245Z,95032.91
2019-01-26T08:34:34.664Z,95030.42
2019-01-26T08:35:38.231Z,95028.97
2019-01-26T08:36:41.736Z,95035.33
2019-01-26T08:37:45.271Z,95041.33
2019-01-26T08:38:48.782Z,95039.27
2019-01-26T08:39:52.199Z,95044.47
2019-01-26T08:40:55.687Z,95042.98
2019-01-26T08:41:59.122Z,95040.62
2019-01-26T08:43:02.672Z,95043.09
2019-01-26T08:44:06.313Z,95046.64
2019-01-26T08:45:11.885Z,95042.50
2019-01-26T08:46:15.333Z,95046.05
2019-01-26T08:47:18.890Z,95042.81
2019-01-26T08:48:22.413Z,95046.76
2019-01-26T08:49:25.900Z,95052.70
2019-01-26T08:50:29.385Z,95052.30
2019-01-26T08:51:32.903Z,95047.98
2019-01-26T08:52:36.377Z,95055.59
2019-01-26T08:53:39.956Z,95056.66
2019-01-26T08:54:43.457Z,95052.54
2019-01-26T08:55:46.973Z,95051.66
2019-01-26T08:56:50.467Z,95054.13
2019-01-26T08:57:54.051Z,95050.02
2019-01-26T08:58:57.560Z,95044.51
2019-01-26T09:00:00.994Z,95058.19
2019-01-26T09:01:04.567Z,95046.83
2019-01-26T09:02:25.643Z,95050.89
2019-01-26T09:03:39.781Z,95045.16
2019-01-26T09:04:43.206Z,95047.37
2019-01-26T09:06:00.255Z,95050.47
2019-01-26T09:07:03.826Z,95049.94
2019-01-26T09:08:07.410Z,95060.38
2019-01-26T09:09:11.175Z,95062.95
2019-01-26T09:10:14.714Z,95054.12
2019-01-26T09:11:18.208Z,95054.78
2019-01-26T09:12:21.711Z,95050.47
2019-01-26T09:13:25.219Z,95050.34
2019-01-26T09:14:28.718Z,95052.19
2019-01-26T09:15:32.242Z,95044.40
2019-01-26T09:16:35.688Z,95048.98
2019-01-26T09:17:39.118Z,95043.38
2019-01-26T09:18:42.812Z,95050.23
2019-01-26T09:19:46.247Z,95052.23
2019-01-26T09:20:49.766Z,95059.78
2019-01-26T09:21:53.419Z,95046.45
2019-01-26T09:22:56.974Z,95059.72
2019-01-26T09:24:00.473Z,95048.58
2019-01-26T09:25:05.130Z,95050.00
2019-01-26T09:26:08.621Z,95050.98
2019-01-26T09:27:12.309Z,95043.98
2019-01-26T09:28:15.965Z,95048.41
2019-01-26T09:29:19.531Z,95047.63
2019-01-26T09:30:23.146Z,95045.64
2019-01-26T09:31:26.572Z,95057.30
2019-01-26T09:32:30.098Z,95059.29
2019-01-26T09:33:33.639Z,95055.69
2019-01-26T09:34:37.082Z,95053.09
2019-01-26T09:35:40.581Z,95057.30
2019-01-26T09:36:44.077Z,95054.52
2019-01-26T09:37:47.653Z,95058.88
2019-01-26T09:38:51.224Z,95048.24
2019-01-26T09:39:54.648Z,95060.94
2019-01-26T09:40:58.082Z,95057.05
2019-01-26T09:42:01.565Z,95067.55
2019-01-26T09:43:05.353Z,95056.16
2019-01-26T09:44:09.211Z,95054.92
2019-01-26T09:45:16.126Z,95058.70
2019-01-26T09:46:19.557Z,95053.38
2019-01-26T09:47:23.056Z,95055.49
2019-01-26T09:48:26.510Z,95055.97
2019-01-26T09:49:29.938Z,95056.83
2019-01-26T09:50:33.479Z,95055.88
2019-01-26T09:51:36.967Z,95057.05
2019-01-26T09:52:40.533Z,95064.17
2019-01-26T09:53:44.048Z,95061.83
2019-01-26T09:54:47.478Z,95061.00
2019-01-26T09:55:50.992Z,95058.79
2019-01-26T09:56:54.553Z,95068.61
2019-01-26T09:57:58.049Z,95058.91
2019-01-26T09:59:01.491Z,95068.95
2019-01-26T10:00:10.577Z,95062.34
2019-01-26T10:01:14.305Z,95068.28
2019-01-26T10:02:17.727Z,95069.37
2019-01-26T10:03:21.207Z,95067.38
2019-01-26T10:04:24.638Z,95071.80
2019-01-26T10:05:28.100Z,95071.14
2019-01-26T10:06:31.585Z,95071.61
2019-01-26T10:07:35.171Z,95069.08
2019-01-26T10:08:38.602Z,95063.98
2019-01-26T10:09:42.046Z,95070.79
2019-01-26T10:10:45.550Z,95074.78
2019-01-26T10:11:49.125Z,95074.56
2019-01-26T10:12:52.711Z,95081.27
2019-01-26T10:13:56.230Z,95073.64
2019-01-26T10:14:59.723Z,95076.49
2019-01-26T10:16:03.273Z,95071.92
2019-01-26T10:17:06.796Z,95074.52
2019-01-26T10:18:10.366Z,95071.77
2019-01-26T10:19:13.929Z,95073.67
2019-01-26T10:20:20.323Z,95065.95
2019-01-26T10:21:23.754Z,95068.13
2019-01-26T10:22:27.214Z,95073.98
2019-01-26T10:23:30.715Z,95062.94
2019-01-26T10:24:34.196Z,95074.37
2019-01-26T10:25:37.770Z,95066.70
2019-01-26T10:26:41.323Z,95063.63
2019-01-26T10:27:45.021Z,95074.30
2019-01-26T10:28:48.429Z,95074.38
2019-01-26T10:29:52.049Z,95064.11
2019-01-26T10:30:57.133Z,95068.44
2019-01-26T10:32:00.568Z,95062.02
2019-01-26T10:33:04.237Z,95063.31
2019-01-26T10:34:07.763Z,95061.75
2019-01-26T10:35:11.378Z,95068.05
2019-01-26T10:36:16.612Z,95059.15
2019-01-26T10:37:20.283Z,95061.59
2019-01-26T10:38:23.784Z,95061.95
2019-01-26T10:39:27.289Z,95055.98
2019-01-26T10:40:35.140Z,95057.45
2019-01-26T10:41:42.800Z,95047.31
2019-01-26T10:42:46.208Z,95045.60
2019-01-26T10:43:51.371Z,95048.56
2019-01-26T10:44:54.877Z,95043.63
2019-01-26T10:45:58.644Z,95040.14
2019-01-26T10:47:02.960Z,95035.84
2019-01-26T10:48:07.911Z,95057.92
2019-01-26T10:49:11.446Z,95036.78
2019-01-26T10:50:14.927Z,95035.48
2019-01-26T10:51:18.606Z,95023.80
2019-01-26T10:52:22.192Z,95025.86
2019-01-26T10:53:25.709Z,95034.80
2019-01-26T10:54:29.137Z,95022.44
2019-01-26T10:55:32.687Z,95025.98
2019-01-26T10:56:36.117Z,95018.75
2019-01-26T10:57:40.055Z,95015.53
2019-01-26T10:58:43.557Z,95019.56
2019-01-26T10:59:47.013Z,95021.34
2019-01-26T11:00:50.465Z,95010.69
2019-01-26T11:01:54.047Z,95013.48
2019-01-26T11:02:57.634Z,95010.26
2019-01-26T11:04:01.226Z,95009.77
2019-01-26T11:05:05.784Z,95014.97
2019-01-26T11:06:09.427Z,95005.41
2019-01-26T11:07:13.018Z,95008.47
2019-01-26T11:08:16.719Z,95003.28
2019-01-26T11:09:23.311Z,95000.95
2019-01-26T11:10:27.013Z,95007.45
2019-01-26T11:11:30.546Z,95007.45
2019-01-26T11:12:34.259Z,94994.72
2019-01-26T11:13:37.807Z,94997.41
2019-01-26T11:14:44.045Z,94992.53
2019-01-26T11:15:47.772Z,95010.21
2019-01-26T11:16:51.381Z,95001.22
2019-01-26T11:17:55.598Z,94989.88
2019-01-26T11:18:59.150Z,95003.77
2019-01-26T11:20:02.754Z,94992.06
2019-01-26T11:21:06.603Z,94986.37
2019-01-26T11:22:10.177Z,94984.73
2019-01-26T11:23:13.756Z,94979.26
2019-01-26T11:24:17.267Z,94983.07
2019-01-26T11:25:20.956Z,94989.30
2019-01-26T11:26:24.731Z,94982.57
2019-01-26T11:27:28.248Z,94985.25
2019-01-26T11:28:31.740Z,94975.71
2019-01-26T11:29:35.294Z,94984.53
2019-01-26T11:30:39.058Z,94978.91
2019-01-26T11:31:42.681Z,94984.18
2019-01-26T11:32:46.349Z,94983.08
2019-01-26T11:33:49.915Z,94988.87
2019-01-26T11:34:53.529Z,94978.68
2019-01-26T11:35:57.263Z,94987.78
2019-01-26T11:37:00.838Z,94986.03
2019-01-26T11:38:04.567Z,94980.90
2019-01-26T11:39:08.521Z,94980.59
2019-01-26T11:40:24.639Z,94978.38
2019-01-26T11:41:28.203Z,94983.00
2019-01-26T11:42:31.716Z,94974.68
2019-01-26T11:43:35.206Z,94968.39
2019-01-26T11:44:40.290Z,94974.89
2019-01-26T11:45:54.419Z,94974.94
2019-01-26T11:46:58.096Z,94968.69
2019-01-26T11:48:06.017Z,94973.50
2019-01-26T11:49:15.034Z,94958.33
2019-01-26T11:50:16.624Z,94961.33
2019-01-26T11:51:21.835Z,94954.58
2019-01-26T11:52:25.299Z,94954.32
2019-01-26T11:53:28.803Z,94951.79
2019-01-26T11:54:32.358Z,94947.81
2019-01-26T11:55:37.735Z,94946.29
2019-01-26T11:56:45.576Z,94942.97
2019-01-26T11:57:49.095Z,94944.98
2019-01-26T11:58:52.646Z,94940.47
2019-01-26T12:00:13.729Z,94937.33
2019-01-26T12:01:21.231Z,94928.46
2019-01-26T12:02:29.830Z,94943.31
2019-01-26T12:03:31.760Z,94936.84
2019-01-26T12:04:37.007Z,94939.84
2019-01-26T12:05:42.249Z,94928.22
2019-01-26T12:06:47.473Z,94944.66
2019-01-26T12:07:51.167Z,94945.02
2019-01-26T12:08:54.704Z,94947.07
2019-01-26T12:09:58.215Z,94943.86
2019-01-26T12:11:01.741Z,94927.94
2019-01-26T12:12:05.313Z,94933.33
2019-01-26T12:13:08.885Z,94930.18
2019-01-26T12:14:12.319Z,94918.92
2019-01-26T12:15:15.896Z,94922.61
2019-01-26T12:16:19.389Z,94923.70
2019-01-26T12:17:22.764Z,94938.20
2019-01-26T12:18:26.259Z,94923.91
2019-01-26T12:19:29.759Z,94921.02
2019-01-26T12:20:33.279Z,94911.17
2019-01-26T12:21:36.812Z,94918.47
2019-01-26T12:22:40.395Z,94920.13
2019-01-26T12:23:43.876Z,94920.28
2019-01-26T12:24:47.410Z,94906.69
2019-01-26T12:25:50.841Z,94910.26
2019-01-26T12:26:54.353Z,94914.23
2019-01-26T12:27:57.785Z,94915.68
2019-01-26T12:29:01.288Z,94911.41
2019-01-26T12:30:10.434Z,94911.92